sensor_id;sensor_type;location;lat;lon;timestamp;P1;durP1;ratioP1;P2;durP2;ratioP2
53267;SDS011;39156;51.176;6.738;2022-07-12T00:01:51;16.63;;;15.63;;
53267;SDS011;39156;51.176;6.738;2022-07-12T00:04:17;16.67;;;15.63;;
53267;SDS011;39156;51.176;6.738;2022-07-12T00:06:43;18.63;;;17.43;;
53267;SDS011;39156;51.176;6.738;2022-07-12T00:09:08;17.33;;;16.23;;
53267;SDS011;39156;51.176;6.738;2022-07-12T00:11:34;17.33;;;16.33;;
53267;SDS011;39156;51.176;6.738;2022-07-12T00:16:27;17.48;;;16.27;;
53267;SDS011;39156;51.176;6.738;2022-07-12T00:18:53;17.83;;;16.57;;
53267;SDS011;39156;51.176;6.738;2022-07-12T00:21:19;17.50;;;16.43;;
53267;SDS011;39156;51.176;6.738;2022-07-12T00:23:45;16.40;;;15.40;;
53267;SDS011;39156;51.176;6.738;2022-07-12T00:26:11;17.02;;;15.98;;
53267;SDS011;39156;51.176;6.738;2022-07-12T00:28:37;17.40;;;16.30;;
53267;SDS011;39156;51.176;6.738;2022-07-12T00:31:03;17.83;;;16.63;;
53267;SDS011;39156;51.176;6.738;2022-07-12T00:33:29;18.10;;;17.00;;
53267;SDS011;39156;51.176;6.738;2022-07-12T00:35:55;18.38;;;17.30;;
53267;SDS011;39156;51.176;6.738;2022-07-12T00:38:20;18.23;;;17.20;;
53267;SDS011;39156;51.176;6.738;2022-07-12T00:40:46;19.02;;;17.83;;
53267;SDS011;39156;51.176;6.738;2022-07-12T00:43:12;16.77;;;15.80;;
53267;SDS011;39156;51.176;6.738;2022-07-12T00:45:38;18.40;;;17.20;;
53267;SDS011;39156;51.176;6.738;2022-07-12T00:48:04;17.77;;;16.77;;
53267;SDS011;39156;51.176;6.738;2022-07-12T00:50:30;18.60;;;16.75;;
53267;SDS011;39156;51.176;6.738;2022-07-12T00:52:56;17.23;;;16.27;;
53267;SDS011;39156;51.176;6.738;2022-07-12T00:55:23;17.80;;;16.52;;
53267;SDS011;39156;51.176;6.738;2022-07-12T00:57:50;18.70;;;17.42;;
53267;SDS011;39156;51.176;6.738;2022-07-12T01:00:23;17.58;;;16.35;;
53267;SDS011;39156;51.176;6.738;2022-07-12T01:02:52;18.38;;;17.27;;
53267;SDS011;39156;51.176;6.738;2022-07-12T01:05:21;17.50;;;16.40;;
53267;SDS011;39156;51.176;6.738;2022-07-12T01:07:47;18.48;;;17.48;;
53267;SDS011;39156;51.176;6.738;2022-07-12T01:12:40;17.23;;;16.23;;
53267;SDS011;39156;51.176;6.738;2022-07-12T01:17:33;17.33;;;16.23;;
53267;SDS011;39156;51.176;6.738;2022-07-12T01:19:59;17.52;;;16.52;;
53267;SDS011;39156;51.176;6.738;2022-07-12T01:22:35;18.25;;;17.15;;
53267;SDS011;39156;51.176;6.738;2022-07-12T01:25:05;17.15;;;15.98;;
53267;SDS011;39156;51.176;6.738;2022-07-12T01:27:32;16.83;;;15.82;;
53267;SDS011;39156;51.176;6.738;2022-07-12T01:29:58;17.47;;;16.47;;
53267;SDS011;39156;51.176;6.738;2022-07-12T01:32:29;18.73;;;17.60;;
53267;SDS011;39156;51.176;6.738;2022-07-12T01:34:59;18.13;;;17.05;;
53267;SDS011;39156;51.176;6.738;2022-07-12T01:37:29;16.58;;;15.57;;
53267;SDS011;39156;51.176;6.738;2022-07-12T01:39:58;18.73;;;17.33;;
53267;SDS011;39156;51.176;6.738;2022-07-12T01:42:26;18.60;;;17.45;;
53267;SDS011;39156;51.176;6.738;2022-07-12T01:44:53;17.33;;;16.38;;
53267;SDS011;39156;51.176;6.738;2022-07-12T01:47:20;17.73;;;16.77;;
53267;SDS011;39156;51.176;6.738;2022-07-12T01:49:47;17.88;;;16.77;;
53267;SDS011;39156;51.176;6.738;2022-07-12T01:52:13;19.23;;;18.10;;
53267;SDS011;39156;51.176;6.738;2022-07-12T01:54:40;17.42;;;16.25;;
53267;SDS011;39156;51.176;6.738;2022-07-12T01:57:07;18.02;;;17.02;;
53267;SDS011;39156;51.176;6.738;2022-07-12T01:59:33;17.63;;;16.60;;
53267;SDS011;39156;51.176;6.738;2022-07-12T02:01:59;17.98;;;16.88;;
53267;SDS011;39156;51.176;6.738;2022-07-12T02:04:28;16.33;;;15.43;;
53267;SDS011;39156;51.176;6.738;2022-07-12T02:06:54;17.25;;;16.25;;
53267;SDS011;39156;51.176;6.738;2022-07-12T02:09:21;17.73;;;16.65;;
53267;SDS011;39156;51.176;6.738;2022-07-12T02:11:47;18.00;;;17.00;;
53267;SDS011;39156;51.176;6.738;2022-07-12T02:14:13;18.02;;;16.92;;
53267;SDS011;39156;51.176;6.738;2022-07-12T02:16:39;19.40;;;18.20;;
53267;SDS011;39156;51.176;6.738;2022-07-12T02:19:06;18.15;;;17.05;;
53267;SDS011;39156;51.176;6.738;2022-07-12T02:21:32;19.70;;;18.53;;
53267;SDS011;39156;51.176;6.738;2022-07-12T02:23:58;18.38;;;17.38;;
53267;SDS011;39156;51.176;6.738;2022-07-12T02:26:25;17.73;;;16.63;;
53267;SDS011;39156;51.176;6.738;2022-07-12T02:28:51;17.13;;;16.13;;
53267;SDS011;39156;51.176;6.738;2022-07-12T02:31:17;17.85;;;16.73;;
53267;SDS011;39156;51.176;6.738;2022-07-12T02:33:42;19.08;;;17.50;;
53267;SDS011;39156;51.176;6.738;2022-07-12T02:36:08;18.92;;;17.73;;
53267;SDS011;39156;51.176;6.738;2022-07-12T02:38:34;17.20;;;16.08;;
53267;SDS011;39156;51.176;6.738;2022-07-12T02:41:00;17.13;;;15.98;;
53267;SDS011;39156;51.176;6.738;2022-07-12T02:43:27;19.33;;;18.15;;
53267;SDS011;39156;51.176;6.738;2022-07-12T02:45:55;17.38;;;16.48;;
53267;SDS011;39156;51.176;6.738;2022-07-12T02:48:29;18.10;;;17.08;;
53267;SDS011;39156;51.176;6.738;2022-07-12T02:50:55;18.30;;;17.20;;
53267;SDS011;39156;51.176;6.738;2022-07-12T02:53:20;16.98;;;16.08;;
53267;SDS011;39156;51.176;6.738;2022-07-12T02:55:47;16.48;;;15.57;;
53267;SDS011;39156;51.176;6.738;2022-07-12T02:58:13;17.55;;;16.23;;
53267;SDS011;39156;51.176;6.738;2022-07-12T03:00:38;17.38;;;16.25;;
53267;SDS011;39156;51.176;6.738;2022-07-12T03:03:04;16.70;;;15.65;;
53267;SDS011;39156;51.176;6.738;2022-07-12T03:05:32;17.98;;;16.88;;
53267;SDS011;39156;51.176;6.738;2022-07-12T03:07:59;16.67;;;15.68;;
53267;SDS011;39156;51.176;6.738;2022-07-12T03:10:25;18.48;;;17.38;;
53267;SDS011;39156;51.176;6.738;2022-07-12T03:12:51;18.60;;;17.52;;
53267;SDS011;39156;51.176;6.738;2022-07-12T03:15:17;18.35;;;17.05;;
53267;SDS011;39156;51.176;6.738;2022-07-12T03:17:43;18.42;;;17.40;;
53267;SDS011;39156;51.176;6.738;2022-07-12T03:20:08;18.20;;;17.17;;
53267;SDS011;39156;51.176;6.738;2022-07-12T03:22:36;18.27;;;17.10;;
53267;SDS011;39156;51.176;6.738;2022-07-12T03:25:03;18.08;;;17.08;;
53267;SDS011;39156;51.176;6.738;2022-07-12T03:27:29;19.80;;;18.70;;
53267;SDS011;39156;51.176;6.738;2022-07-12T03:29:58;18.75;;;17.55;;
53267;SDS011;39156;51.176;6.738;2022-07-12T03:32:23;19.73;;;18.58;;
53267;SDS011;39156;51.176;6.738;2022-07-12T03:34:49;18.77;;;17.53;;
53267;SDS011;39156;51.176;6.738;2022-07-12T03:37:15;17.90;;;16.60;;
53267;SDS011;39156;51.176;6.738;2022-07-12T03:39:41;17.60;;;16.50;;
53267;SDS011;39156;51.176;6.738;2022-07-12T03:42:07;17.73;;;16.63;;
53267;SDS011;39156;51.176;6.738;2022-07-12T03:44:32;18.55;;;17.45;;
53267;SDS011;39156;51.176;6.738;2022-07-12T03:46:59;18.70;;;17.50;;
53267;SDS011;39156;51.176;6.738;2022-07-12T03:49:25;19.48;;;18.27;;
53267;SDS011;39156;51.176;6.738;2022-07-12T03:51:50;18.10;;;17.00;;
53267;SDS011;39156;51.176;6.738;2022-07-12T03:54:16;18.83;;;17.75;;
53267;SDS011;39156;51.176;6.738;2022-07-12T03:56:42;18.88;;;17.77;;
53267;SDS011;39156;51.176;6.738;2022-07-12T03:59:26;19.92;;;18.60;;
53267;SDS011;39156;51.176;6.738;2022-07-12T04:01:52;19.52;;;18.42;;
53267;SDS011;39156;51.176;6.738;2022-07-12T04:04:17;18.80;;;17.13;;
53267;SDS011;39156;51.176;6.738;2022-07-12T04:06:43;20.40;;;19.10;;
53267;SDS011;39156;51.176;6.738;2022-07-12T04:09:09;18.83;;;17.73;;
53267;SDS011;39156;51.176;6.738;2022-07-12T04:11:35;18.70;;;17.60;;
53267;SDS011;39156;51.176;6.738;2022-07-12T04:14:01;19.13;;;17.83;;
53267;SDS011;39156;51.176;6.738;2022-07-12T04:16:26;18.55;;;17.48;;
53267;SDS011;39156;51.176;6.738;2022-07-12T04:18:54;19.92;;;18.80;;
53267;SDS011;39156;51.176;6.738;2022-07-12T04:21:21;20.48;;;19.20;;
53267;SDS011;39156;51.176;6.738;2022-07-12T04:23:47;18.97;;;17.87;;
53267;SDS011;39156;51.176;6.738;2022-07-12T04:26:12;19.50;;;18.30;;
53267;SDS011;39156;51.176;6.738;2022-07-12T04:28:38;19.10;;;17.90;;
53267;SDS011;39156;51.176;6.738;2022-07-12T04:31:04;18.98;;;17.80;;
53267;SDS011;39156;51.176;6.738;2022-07-12T04:33:31;18.63;;;17.55;;
53267;SDS011;39156;51.176;6.738;2022-07-12T04:35:58;19.73;;;18.42;;
53267;SDS011;39156;51.176;6.738;2022-07-12T04:38:24;18.02;;;16.88;;
53267;SDS011;39156;51.176;6.738;2022-07-12T04:40:50;18.07;;;16.87;;
53267;SDS011;39156;51.176;6.738;2022-07-12T04:43:15;17.17;;;16.03;;
53267;SDS011;39156;51.176;6.738;2022-07-12T04:45:41;17.67;;;16.53;;
53267;SDS011;39156;51.176;6.738;2022-07-12T04:48:10;16.08;;;15.07;;
53267;SDS011;39156;51.176;6.738;2022-07-12T04:50:36;16.42;;;15.48;;
53267;SDS011;39156;51.176;6.738;2022-07-12T04:53:02;15.35;;;14.38;;
53267;SDS011;39156;51.176;6.738;2022-07-12T04:55:28;15.57;;;14.30;;
53267;SDS011;39156;51.176;6.738;2022-07-12T04:57:54;15.55;;;14.45;;
53267;SDS011;39156;51.176;6.738;2022-07-12T05:00:20;15.20;;;14.20;;
53267;SDS011;39156;51.176;6.738;2022-07-12T05:02:46;14.90;;;13.90;;
53267;SDS011;39156;51.176;6.738;2022-07-12T05:05:12;14.90;;;13.65;;
53267;SDS011;39156;51.176;6.738;2022-07-12T05:07:39;14.80;;;13.80;;
53267;SDS011;39156;51.176;6.738;2022-07-12T05:12:31;14.15;;;13.27;;
53267;SDS011;39156;51.176;6.738;2022-07-12T05:14:57;14.70;;;13.70;;
53267;SDS011;39156;51.176;6.738;2022-07-12T05:17:22;14.07;;;13.07;;
53267;SDS011;39156;51.176;6.738;2022-07-12T05:19:48;14.48;;;13.27;;
53267;SDS011;39156;51.176;6.738;2022-07-12T05:22:14;14.88;;;13.73;;
53267;SDS011;39156;51.176;6.738;2022-07-12T05:24:39;13.88;;;12.93;;
53267;SDS011;39156;51.176;6.738;2022-07-12T05:27:05;14.15;;;13.25;;
53267;SDS011;39156;51.176;6.738;2022-07-12T05:29:31;15.23;;;14.18;;
53267;SDS011;39156;51.176;6.738;2022-07-12T05:31:57;15.52;;;14.48;;
53267;SDS011;39156;51.176;6.738;2022-07-12T05:34:23;14.82;;;13.73;;
53267;SDS011;39156;51.176;6.738;2022-07-12T05:36:48;15.23;;;14.20;;
53267;SDS011;39156;51.176;6.738;2022-07-12T05:39:15;14.52;;;13.52;;
53267;SDS011;39156;51.176;6.738;2022-07-12T05:44:06;14.45;;;13.35;;
53267;SDS011;39156;51.176;6.738;2022-07-12T05:46:32;13.65;;;12.57;;
53267;SDS011;39156;51.176;6.738;2022-07-12T05:48:58;13.80;;;12.70;;
53267;SDS011;39156;51.176;6.738;2022-07-12T05:51:26;14.50;;;13.40;;
53267;SDS011;39156;51.176;6.738;2022-07-12T05:54:10;14.18;;;13.07;;
53267;SDS011;39156;51.176;6.738;2022-07-12T05:56:36;13.68;;;12.68;;
53267;SDS011;39156;51.176;6.738;2022-07-12T05:59:02;13.27;;;12.38;;
53267;SDS011;39156;51.176;6.738;2022-07-12T06:01:28;13.15;;;12.25;;
53267;SDS011;39156;51.176;6.738;2022-07-12T06:03:53;14.27;;;13.15;;
53267;SDS011;39156;51.176;6.738;2022-07-12T06:06:19;13.85;;;12.75;;
53267;SDS011;39156;51.176;6.738;2022-07-12T06:08:45;14.40;;;13.30;;
53267;SDS011;39156;51.176;6.738;2022-07-12T06:11:10;13.82;;;12.82;;
53267;SDS011;39156;51.176;6.738;2022-07-12T06:13:37;12.50;;;11.60;;
53267;SDS011;39156;51.176;6.738;2022-07-12T06:16:02;13.70;;;12.27;;
53267;SDS011;39156;51.176;6.738;2022-07-12T06:18:30;13.20;;;12.00;;
53267;SDS011;39156;51.176;6.738;2022-07-12T06:20:59;12.60;;;11.50;;
53267;SDS011;39156;51.176;6.738;2022-07-12T06:23:25;12.27;;;11.25;;
53267;SDS011;39156;51.176;6.738;2022-07-12T06:25:50;11.43;;;10.52;;
53267;SDS011;39156;51.176;6.738;2022-07-12T06:28:16;13.23;;;12.00;;
53267;SDS011;39156;51.176;6.738;2022-07-12T06:30:42;12.57;;;11.57;;
53267;SDS011;39156;51.176;6.738;2022-07-12T06:33:08;12.25;;;11.15;;
53267;SDS011;39156;51.176;6.738;2022-07-12T06:35:33;13.25;;;11.65;;
53267;SDS011;39156;51.176;6.738;2022-07-12T06:37:59;12.15;;;11.25;;
53267;SDS011;39156;51.176;6.738;2022-07-12T06:40:25;10.48;;;9.68;;
53267;SDS011;39156;51.176;6.738;2022-07-12T06:42:51;11.55;;;10.52;;
53267;SDS011;39156;51.176;6.738;2022-07-12T06:45:17;10.60;;;9.90;;
53267;SDS011;39156;51.176;6.738;2022-07-12T06:47:43;11.07;;;10.05;;
53267;SDS011;39156;51.176;6.738;2022-07-12T06:50:09;10.60;;;9.57;;
53267;SDS011;39156;51.176;6.738;2022-07-12T06:52:34;10.25;;;9.35;;
53267;SDS011;39156;51.176;6.738;2022-07-12T06:55:00;10.05;;;9.15;;
53267;SDS011;39156;51.176;6.738;2022-07-12T06:57:26;9.90;;;9.00;;
53267;SDS011;39156;51.176;6.738;2022-07-12T06:59:54;10.25;;;9.35;;
53267;SDS011;39156;51.176;6.738;2022-07-12T07:02:21;9.75;;;9.05;;
53267;SDS011;39156;51.176;6.738;2022-07-12T07:04:47;9.10;;;8.50;;
53267;SDS011;39156;51.176;6.738;2022-07-12T07:07:13;9.10;;;8.40;;
53267;SDS011;39156;51.176;6.738;2022-07-12T07:09:39;8.70;;;8.00;;
53267;SDS011;39156;51.176;6.738;2022-07-12T07:12:05;9.02;;;8.30;;
53267;SDS011;39156;51.176;6.738;2022-07-12T07:14:30;9.30;;;8.60;;
53267;SDS011;39156;51.176;6.738;2022-07-12T07:16:56;8.90;;;8.20;;
53267;SDS011;39156;51.176;6.738;2022-07-12T07:19:22;9.27;;;8.45;;
53267;SDS011;39156;51.176;6.738;2022-07-12T07:21:49;8.18;;;7.57;;
53267;SDS011;39156;51.176;6.738;2022-07-12T07:24:15;9.63;;;7.70;;
53267;SDS011;39156;51.176;6.738;2022-07-12T07:26:41;8.32;;;7.60;;
53267;SDS011;39156;51.176;6.738;2022-07-12T07:29:07;8.45;;;7.65;;
53267;SDS011;39156;51.176;6.738;2022-07-12T07:31:51;8.68;;;7.93;;
53267;SDS011;39156;51.176;6.738;2022-07-12T07:34:17;9.20;;;6.97;;
53267;SDS011;39156;51.176;6.738;2022-07-12T07:36:42;7.90;;;7.30;;
53267;SDS011;39156;51.176;6.738;2022-07-12T07:39:08;8.32;;;7.53;;
53267;SDS011;39156;51.176;6.738;2022-07-12T07:41:34;7.55;;;6.93;;
53267;SDS011;39156;51.176;6.738;2022-07-12T07:44:00;7.57;;;6.97;;
53267;SDS011;39156;51.176;6.738;2022-07-12T07:46:26;7.90;;;7.22;;
53267;SDS011;39156;51.176;6.738;2022-07-12T07:48:52;8.27;;;7.60;;
53267;SDS011;39156;51.176;6.738;2022-07-12T07:51:17;8.20;;;7.60;;
53267;SDS011;39156;51.176;6.738;2022-07-12T07:53:43;7.20;;;6.70;;
53267;SDS011;39156;51.176;6.738;2022-07-12T07:56:09;7.63;;;7.03;;
53267;SDS011;39156;51.176;6.738;2022-07-12T07:58:34;7.95;;;7.35;;
53267;SDS011;39156;51.176;6.738;2022-07-12T08:01:00;7.30;;;6.80;;
53267;SDS011;39156;51.176;6.738;2022-07-12T08:03:26;8.00;;;7.32;;
53267;SDS011;39156;51.176;6.738;2022-07-12T08:05:52;7.38;;;6.80;;
53267;SDS011;39156;51.176;6.738;2022-07-12T08:08:18;7.88;;;7.28;;
53267;SDS011;39156;51.176;6.738;2022-07-12T08:10:43;7.28;;;6.78;;
53267;SDS011;39156;51.176;6.738;2022-07-12T08:13:09;7.68;;;7.07;;
53267;SDS011;39156;51.176;6.738;2022-07-12T08:15:35;8.18;;;7.28;;
53267;SDS011;39156;51.176;6.738;2022-07-12T08:18:01;7.15;;;6.47;;
53267;SDS011;39156;51.176;6.738;2022-07-12T08:20:28;6.15;;;5.65;;
53267;SDS011;39156;51.176;6.738;2022-07-12T08:22:53;6.45;;;5.95;;
53267;SDS011;39156;51.176;6.738;2022-07-12T08:25:19;6.60;;;6.00;;
53267;SDS011;39156;51.176;6.738;2022-07-12T08:27:45;6.18;;;5.68;;
53267;SDS011;39156;51.176;6.738;2022-07-12T08:30:10;8.20;;;5.78;;
53267;SDS011;39156;51.176;6.738;2022-07-12T08:32:36;6.00;;;5.50;;
53267;SDS011;39156;51.176;6.738;2022-07-12T08:35:02;6.20;;;5.57;;
53267;SDS011;39156;51.176;6.738;2022-07-12T08:37:29;8.05;;;6.30;;
53267;SDS011;39156;51.176;6.738;2022-07-12T08:39:54;6.80;;;5.75;;
53267;SDS011;39156;51.176;6.738;2022-07-12T08:42:20;6.30;;;5.80;;
53267;SDS011;39156;51.176;6.738;2022-07-12T08:44:55;6.32;;;5.88;;
53267;SDS011;39156;51.176;6.738;2022-07-12T08:47:22;6.40;;;5.90;;
53267;SDS011;39156;51.176;6.738;2022-07-12T08:52:52;5.97;;;5.57;;
53267;SDS011;39156;51.176;6.738;2022-07-12T08:57:54;6.20;;;5.80;;
53267;SDS011;39156;51.176;6.738;2022-07-12T09:00:22;6.07;;;5.68;;
53267;SDS011;39156;51.176;6.738;2022-07-12T09:02:50;7.22;;;6.22;;
53267;SDS011;39156;51.176;6.738;2022-07-12T09:05:21;6.40;;;5.90;;
53267;SDS011;39156;51.176;6.738;2022-07-12T09:07:50;6.15;;;5.60;;
53267;SDS011;39156;51.176;6.738;2022-07-12T09:10:16;6.65;;;5.65;;
53267;SDS011;39156;51.176;6.738;2022-07-12T09:12:43;6.00;;;5.57;;
53267;SDS011;39156;51.176;6.738;2022-07-12T09:15:17;6.47;;;5.97;;
53267;SDS011;39156;51.176;6.738;2022-07-12T09:20:23;8.00;;;6.10;;
53267;SDS011;39156;51.176;6.738;2022-07-12T09:22:52;7.35;;;6.00;;
53267;SDS011;39156;51.176;6.738;2022-07-12T09:25:30;6.30;;;5.70;;
53267;SDS011;39156;51.176;6.738;2022-07-12T09:27:57;5.90;;;5.40;;
53267;SDS011;39156;51.176;6.738;2022-07-12T09:30:27;5.93;;;5.43;;
53267;SDS011;39156;51.176;6.738;2022-07-12T09:32:56;6.00;;;5.50;;
53267;SDS011;39156;51.176;6.738;2022-07-12T09:38:32;6.05;;;5.55;;
53267;SDS011;39156;51.176;6.738;2022-07-12T09:41:05;6.32;;;5.78;;
53267;SDS011;39156;51.176;6.738;2022-07-12T09:43:32;7.18;;;5.72;;
53267;SDS011;39156;51.176;6.738;2022-07-12T09:45:59;6.20;;;5.57;;
53267;SDS011;39156;51.176;6.738;2022-07-12T09:48:28;6.07;;;5.47;;
53267;SDS011;39156;51.176;6.738;2022-07-12T09:50:55;6.20;;;5.40;;
53267;SDS011;39156;51.176;6.738;2022-07-12T09:53:32;6.53;;;5.93;;
53267;SDS011;39156;51.176;6.738;2022-07-12T09:56:16;6.70;;;6.20;;
53267;SDS011;39156;51.176;6.738;2022-07-12T09:58:55;6.50;;;5.97;;
53267;SDS011;39156;51.176;6.738;2022-07-12T10:01:22;6.38;;;5.78;;
53267;SDS011;39156;51.176;6.738;2022-07-12T10:03:49;5.93;;;5.43;;
53267;SDS011;39156;51.176;6.738;2022-07-12T10:06:35;6.18;;;5.68;;
53267;SDS011;39156;51.176;6.738;2022-07-12T10:09:02;6.30;;;5.70;;
53267;SDS011;39156;51.176;6.738;2022-07-12T10:11:30;6.82;;;5.95;;
53267;SDS011;39156;51.176;6.738;2022-07-12T10:13:56;9.82;;;6.30;;
53267;SDS011;39156;51.176;6.738;2022-07-12T10:16:26;6.80;;;6.20;;
53267;SDS011;39156;51.176;6.738;2022-07-12T10:21:56;7.50;;;7.00;;
53267;SDS011;39156;51.176;6.738;2022-07-12T10:29:38;7.78;;;7.18;;
53267;SDS011;39156;51.176;6.738;2022-07-12T10:35:01;8.23;;;7.63;;
53267;SDS011;39156;51.176;6.738;2022-07-12T10:37:32;8.60;;;7.95;;
53267;SDS011;39156;51.176;6.738;2022-07-12T10:40:19;9.30;;;8.50;;
53267;SDS011;39156;51.176;6.738;2022-07-12T10:45:47;8.77;;;8.15;;
53267;SDS011;39156;51.176;6.738;2022-07-12T10:53:32;8.85;;;8.25;;
53267;SDS011;39156;51.176;6.738;2022-07-12T10:58:40;9.32;;;8.63;;
53267;SDS011;39156;51.176;6.738;2022-07-12T11:01:13;9.32;;;8.52;;
53267;SDS011;39156;51.176;6.738;2022-07-12T11:03:47;9.13;;;8.48;;
53267;SDS011;39156;51.176;6.738;2022-07-12T11:06:17;10.15;;;9.35;;
53267;SDS011;39156;51.176;6.738;2022-07-12T11:08:57;9.13;;;8.52;;
53267;SDS011;39156;51.176;6.738;2022-07-12T11:11:34;9.57;;;8.98;;
53267;SDS011;39156;51.176;6.738;2022-07-12T11:14:08;9.05;;;8.35;;
53267;SDS011;39156;51.176;6.738;2022-07-12T11:16:42;9.00;;;8.30;;
53267;SDS011;39156;51.176;6.738;2022-07-12T11:19:12;11.90;;;9.63;;
53267;SDS011;39156;51.176;6.738;2022-07-12T11:21:39;9.48;;;8.77;;
53267;SDS011;39156;51.176;6.738;2022-07-12T11:24:15;8.98;;;8.38;;
53267;SDS011;39156;51.176;6.738;2022-07-12T11:26:43;9.30;;;8.70;;
53267;SDS011;39156;51.176;6.738;2022-07-12T11:31:35;9.20;;;8.50;;
53267;SDS011;39156;51.176;6.738;2022-07-12T11:36:26;9.30;;;8.70;;
53267;SDS011;39156;51.176;6.738;2022-07-12T11:38:54;9.93;;;8.90;;
53267;SDS011;39156;51.176;6.738;2022-07-12T11:46:13;9.43;;;8.82;;
53267;SDS011;39156;51.176;6.738;2022-07-12T11:48:41;9.85;;;9.15;;
53267;SDS011;39156;51.176;6.738;2022-07-12T11:51:08;9.93;;;9.30;;
53267;SDS011;39156;51.176;6.738;2022-07-12T11:53:40;10.10;;;9.30;;
53267;SDS011;39156;51.176;6.738;2022-07-12T11:56:06;9.02;;;8.38;;
53267;SDS011;39156;51.176;6.738;2022-07-12T11:58:34;9.55;;;8.95;;
53267;SDS011;39156;51.176;6.738;2022-07-12T12:01:03;9.38;;;8.63;;
53267;SDS011;39156;51.176;6.738;2022-07-12T12:03:29;9.00;;;8.30;;
53267;SDS011;39156;51.176;6.738;2022-07-12T12:05:57;9.70;;;9.00;;
53267;SDS011;39156;51.176;6.738;2022-07-12T12:08:23;9.88;;;9.18;;
53267;SDS011;39156;51.176;6.738;2022-07-12T12:10:54;9.00;;;8.40;;
53267;SDS011;39156;51.176;6.738;2022-07-12T12:13:25;9.93;;;9.20;;
53267;SDS011;39156;51.176;6.738;2022-07-12T12:15:56;9.55;;;8.85;;
53267;SDS011;39156;51.176;6.738;2022-07-12T12:18:32;9.55;;;8.85;;
53267;SDS011;39156;51.176;6.738;2022-07-12T12:21:03;9.50;;;8.73;;
53267;SDS011;39156;51.176;6.738;2022-07-12T12:23:37;9.73;;;8.93;;
53267;SDS011;39156;51.176;6.738;2022-07-12T12:28:45;9.23;;;8.63;;
53267;SDS011;39156;51.176;6.738;2022-07-12T12:31:11;9.30;;;8.70;;
53267;SDS011;39156;51.176;6.738;2022-07-12T12:36:29;9.50;;;8.70;;
53267;SDS011;39156;51.176;6.738;2022-07-12T12:39:01;10.52;;;9.70;;
53267;SDS011;39156;51.176;6.738;2022-07-12T12:41:29;8.77;;;8.20;;
53267;SDS011;39156;51.176;6.738;2022-07-12T12:44:04;9.55;;;8.85;;
53267;SDS011;39156;51.176;6.738;2022-07-12T12:46:45;8.80;;;8.25;;
53267;SDS011;39156;51.176;6.738;2022-07-12T12:49:47;9.48;;;8.88;;
53267;SDS011;39156;51.176;6.738;2022-07-12T12:52:15;9.10;;;8.50;;
53267;SDS011;39156;51.176;6.738;2022-07-12T12:54:42;8.90;;;8.30;;
53267;SDS011;39156;51.176;6.738;2022-07-12T12:57:09;9.13;;;8.45;;
53267;SDS011;39156;51.176;6.738;2022-07-12T12:59:36;9.00;;;8.30;;
53267;SDS011;39156;51.176;6.738;2022-07-12T13:02:03;9.05;;;8.43;;
53267;SDS011;39156;51.176;6.738;2022-07-12T13:04:31;8.25;;;7.65;;
53267;SDS011;39156;51.176;6.738;2022-07-12T13:06:58;8.70;;;8.00;;
53267;SDS011;39156;51.176;6.738;2022-07-12T13:09:25;9.55;;;8.80;;
53267;SDS011;39156;51.176;6.738;2022-07-12T13:11:52;8.27;;;7.78;;
53267;SDS011;39156;51.176;6.738;2022-07-12T13:14:18;8.32;;;7.75;;
53267;SDS011;39156;51.176;6.738;2022-07-12T13:16:43;8.45;;;7.90;;
53267;SDS011;39156;51.176;6.738;2022-07-12T13:21:34;8.32;;;7.82;;
53267;SDS011;39156;51.176;6.738;2022-07-12T13:24:00;9.00;;;8.20;;
53267;SDS011;39156;51.176;6.738;2022-07-12T13:26:26;7.80;;;7.30;;
53267;SDS011;39156;51.176;6.738;2022-07-12T13:28:55;8.48;;;7.88;;
53267;SDS011;39156;51.176;6.738;2022-07-12T13:31:22;8.15;;;7.65;;
53267;SDS011;39156;51.176;6.738;2022-07-12T13:33:48;8.50;;;7.70;;
53267;SDS011;39156;51.176;6.738;2022-07-12T13:36:14;8.20;;;7.70;;
53267;SDS011;39156;51.176;6.738;2022-07-12T13:38:39;8.57;;;7.88;;
53267;SDS011;39156;51.176;6.738;2022-07-12T13:41:05;8.43;;;7.93;;
53267;SDS011;39156;51.176;6.738;2022-07-12T13:43:31;8.43;;;7.80;;
53267;SDS011;39156;51.176;6.738;2022-07-12T13:45:58;8.13;;;7.63;;
53267;SDS011;39156;51.176;6.738;2022-07-12T13:48:24;8.35;;;7.85;;
53267;SDS011;39156;51.176;6.738;2022-07-12T13:50:49;8.10;;;7.60;;
53267;SDS011;39156;51.176;6.738;2022-07-12T13:53:15;8.02;;;7.43;;
53267;SDS011;39156;51.176;6.738;2022-07-12T13:55:42;7.93;;;7.43;;
53267;SDS011;39156;51.176;6.738;2022-07-12T13:58:08;8.00;;;7.53;;
53267;SDS011;39156;51.176;6.738;2022-07-12T14:00:34;7.57;;;7.18;;
53267;SDS011;39156;51.176;6.738;2022-07-12T14:03:00;7.82;;;7.38;;
53267;SDS011;39156;51.176;6.738;2022-07-12T14:05:26;8.00;;;7.50;;
53267;SDS011;39156;51.176;6.738;2022-07-12T14:07:52;11.15;;;7.47;;
53267;SDS011;39156;51.176;6.738;2022-07-12T14:10:18;7.78;;;7.18;;
53267;SDS011;39156;51.176;6.738;2022-07-12T14:12:44;7.93;;;7.43;;
53267;SDS011;39156;51.176;6.738;2022-07-12T14:15:10;7.57;;;7.13;;
53267;SDS011;39156;51.176;6.738;2022-07-12T14:17:40;8.10;;;7.50;;
53267;SDS011;39156;51.176;6.738;2022-07-12T14:20:08;8.70;;;7.93;;
53267;SDS011;39156;51.176;6.738;2022-07-12T14:22:35;7.45;;;7.05;;
53267;SDS011;39156;51.176;6.738;2022-07-12T14:25:04;7.65;;;7.13;;
53267;SDS011;39156;51.176;6.738;2022-07-12T14:27:32;7.70;;;6.97;;
53267;SDS011;39156;51.176;6.738;2022-07-12T14:29:58;7.68;;;7.10;;
53267;SDS011;39156;51.176;6.738;2022-07-12T14:32:24;7.13;;;6.70;;
53267;SDS011;39156;51.176;6.738;2022-07-12T14:34:50;7.50;;;7.00;;
53267;SDS011;39156;51.176;6.738;2022-07-12T14:37:16;8.10;;;7.60;;
53267;SDS011;39156;51.176;6.738;2022-07-12T14:39:42;7.70;;;7.20;;
53267;SDS011;39156;51.176;6.738;2022-07-12T14:42:07;8.10;;;7.30;;
53267;SDS011;39156;51.176;6.738;2022-07-12T14:44:33;7.30;;;6.90;;
53267;SDS011;39156;51.176;6.738;2022-07-12T14:46:59;7.40;;;6.90;;
53267;SDS011;39156;51.176;6.738;2022-07-12T14:49:25;7.68;;;7.18;;
53267;SDS011;39156;51.176;6.738;2022-07-12T14:51:52;8.07;;;7.47;;
53267;SDS011;39156;51.176;6.738;2022-07-12T14:54:17;7.43;;;7.00;;
53267;SDS011;39156;51.176;6.738;2022-07-12T14:56:43;8.10;;;7.60;;
53267;SDS011;39156;51.176;6.738;2022-07-12T14:59:09;7.85;;;7.45;;
53267;SDS011;39156;51.176;6.738;2022-07-12T15:01:34;8.10;;;7.50;;
53267;SDS011;39156;51.176;6.738;2022-07-12T15:04:00;7.55;;;6.95;;
53267;SDS011;39156;51.176;6.738;2022-07-12T15:06:26;7.63;;;7.10;;
53267;SDS011;39156;51.176;6.738;2022-07-12T15:08:52;7.45;;;6.95;;
53267;SDS011;39156;51.176;6.738;2022-07-12T15:11:18;7.70;;;7.15;;
53267;SDS011;39156;51.176;6.738;2022-07-12T15:13:45;7.10;;;6.65;;
53267;SDS011;39156;51.176;6.738;2022-07-12T15:16:11;7.90;;;7.20;;
53267;SDS011;39156;51.176;6.738;2022-07-12T15:18:36;7.63;;;7.03;;
53267;SDS011;39156;51.176;6.738;2022-07-12T15:21:02;7.40;;;6.90;;
53267;SDS011;39156;51.176;6.738;2022-07-12T15:23:29;8.02;;;7.43;;
53267;SDS011;39156;51.176;6.738;2022-07-12T15:25:55;7.57;;;7.13;;
53267;SDS011;39156;51.176;6.738;2022-07-12T15:28:22;7.53;;;7.07;;
53267;SDS011;39156;51.176;6.738;2022-07-12T15:30:51;7.72;;;7.22;;
53267;SDS011;39156;51.176;6.738;2022-07-12T15:33:17;7.47;;;7.05;;
53267;SDS011;39156;51.176;6.738;2022-07-12T15:35:43;7.50;;;7.10;;
53267;SDS011;39156;51.176;6.738;2022-07-12T15:38:08;7.90;;;7.40;;
53267;SDS011;39156;51.176;6.738;2022-07-12T15:40:34;8.07;;;7.57;;